Time;durP1;ratioP1;P1;durP2;ratioP2;P2;SDS_P1;SDS_P2;PMS_P1;PMS_P2;Temp;Humidity;BMP_temperature;BMP_pressure;BME280_temperature;BME280_humidity;BME280_pressure;Samples;Min_cycle;Max_cycle;Signal;HPM_P1;HPM_P2
2023/10/28 00:02:51;;;;;;;5.18;4.20;;;;;;;;;;6241347;28;20045;-72
2023/10/28 00:05:54;;;;;;;5.93;3.33;;;;;;;;;;6219120;28;20042;-72
2023/10/28 00:08:56;;;;;;;6.28;3.03;;;;;;;;;;6218948;28;20124;-71
2023/10/28 00:11:58;;;;;;;5.60;3.67;;;;;;;;;;6211884;28;20041;-71
2023/10/28 00:15:00;;;;;;;7.82;4.25;;;;;;;;;;6222108;28;20045;-72
2023/10/28 00:18:04;;;;;;;5.35;3.40;;;;;;;;;;6220270;28;20048;-72
2023/10/28 00:21:11;;;;;;;6.05;3.30;;;;;;;;;;6236580;28;20061;-72
2023/10/28 00:24:13;;;;;;;6.50;3.53;;;;;;;;;;6239007;28;20052;-72
2023/10/28 00:27:15;;;;;;;7.57;3.97;;;;;;;;;;6240273;28;20048;-72
2023/10/28 00:30:18;;;;;;;6.82;4.05;;;;;;;;;;6239360;28;20140;-71
2023/10/28 00:33:20;;;;;;;4.32;3.67;;;;;;;;;;6233037;28;20053;-72
2023/10/28 00:36:22;;;;;;;5.97;4.60;;;;;;;;;;6240011;28;20049;-71
2023/10/28 00:39:24;;;;;;;5.97;3.65;;;;;;;;;;6221128;28;20577;-71
2023/10/28 00:42:27;;;;;;;6.30;4.72;;;;;;;;;;6218488;28;20741;-71
2023/10/28 00:45:29;;;;;;;6.07;4.03;;;;;;;;;;6239296;28;20045;-72
2023/10/28 00:48:31;;;;;;;9.85;3.60;;;;;;;;;;6239594;28;20434;-72
2023/10/28 00:51:33;;;;;;;8.02;4.97;;;;;;;;;;6220101;28;20077;-72
2023/10/28 00:54:35;;;;;;;8.23;4.40;;;;;;;;;;6220296;28;20076;-71
2023/10/28 00:57:42;;;;;;;6.65;5.40;;;;;;;;;;6239181;28;20490;-72
2023/10/28 01:00:45;;;;;;;5.18;1.50;;;;;;;;;;6221308;28;20625;-71
2023/10/28 01:03:47;;;;;;;4.70;3.95;;;;;;;;;;6239411;28;20581;-71
2023/10/28 01:06:49;;;;;;;9.68;6.15;;;;;;;;;;6219103;28;20049;-72
2023/10/28 01:09:51;;;;;;;10.55;5.63;;;;;;;;;;6218541;28;20041;-72
2023/10/28 01:12:54;;;;;;;7.45;4.63;;;;;;;;;;6216244;28;20057;-72
2023/10/28 01:15:59;;;;;;;12.05;5.43;;;;;;;;;;6221332;28;20042;-71
2023/10/28 01:19:01;;;;;;;11.65;4.20;;;;;;;;;;6212537;28;20042;-70
2023/10/28 01:22:03;;;;;;;9.25;6.20;;;;;;;;;;6220820;28;20120;-72
2023/10/28 01:25:06;;;;;;;10.40;4.82;;;;;;;;;;6238698;28;20041;-71
2023/10/28 01:28:08;;;;;;;7.80;3.78;;;;;;;;;;6224562;28;20077;-72
2023/10/28 01:31:10;;;;;;;6.78;3.30;;;;;;;;;;6233898;28;20773;-71
2023/10/28 01:34:12;;;;;;;12.98;6.45;;;;;;;;;;6236392;28;20103;-71
2023/10/28 01:37:18;;;;;;;22.67;6.95;;;;;;;;;;6238287;28;20052;-72
2023/10/28 01:40:20;;;;;;;8.65;2.88;;;;;;;;;;6221506;28;20190;-72
2023/10/28 01:43:23;;;;;;;11.20;3.03;;;;;;;;;;6238718;28;20042;-72
2023/10/28 01:46:25;;;;;;;8.75;5.40;;;;;;;;;;6217896;28;20106;-72
2023/10/28 01:49:27;;;;;;;8.02;3.83;;;;;;;;;;6237264;28;20053;-72
2023/10/28 01:52:30;;;;;;;6.78;4.88;;;;;;;;;;6237717;28;20151;-72
2023/10/28 01:55:32;;;;;;;13.30;4.80;;;;;;;;;;6214571;28;20042;-72
2023/10/28 01:58:35;;;;;;;6.07;2.42;;;;;;;;;;6201104;28;20057;-71
2023/10/28 02:01:37;;;;;;;7.82;2.88;;;;;;;;;;6246361;28;20089;-72
2023/10/28 02:04:39;;;;;;;5.93;4.50;;;;;;;;;;6219542;28;20033;-71
2023/10/28 02:07:41;;;;;;;5.80;3.90;;;;;;;;;;6221679;28;20053;-71
2023/10/28 02:10:43;;;;;;;12.55;5.90;;;;;;;;;;6236075;28;20474;-70
2023/10/28 02:13:46;;;;;;;7.07;4.50;;;;;;;;;;6202815;28;20049;-72
2023/10/28 02:16:49;;;;;;;7.60;4.78;;;;;;;;;;6197472;28;20136;-72
2023/10/28 02:19:51;;;;;;;5.75;4.22;;;;;;;;;;6202698;28;20053;-72
2023/10/28 02:22:53;;;;;;;8.88;4.18;;;;;;;;;;6237330;28;20057;-71
2023/10/28 02:25:55;;;;;;;7.18;4.53;;;;;;;;;;6203981;28;20061;-71
2023/10/28 02:28:58;;;;;;;6.43;2.75;;;;;;;;;;6220463;28;20225;-71
2023/10/28 02:32:00;;;;;;;5.47;4.55;;;;;;;;;;6236606;28;20110;-72
2023/10/28 02:35:03;;;;;;;7.85;4.38;;;;;;;;;;6237703;28;20778;-71
2023/10/28 02:38:05;;;;;;;9.23;4.50;;;;;;;;;;6237700;28;20064;-72
2023/10/28 02:41:07;;;;;;;7.97;3.10;;;;;;;;;;6184239;28;20107;-71
2023/10/28 02:44:09;;;;;;;9.98;5.97;;;;;;;;;;6227735;28;20073;-71
2023/10/28 02:47:11;;;;;;;9.90;5.38;;;;;;;;;;6237063;28;20045;-71
2023/10/28 02:50:14;;;;;;;4.80;4.00;;;;;;;;;;6235485;28;20057;-72
2023/10/28 02:53:16;;;;;;;6.97;5.03;;;;;;;;;;6199389;28;20048;-72
2023/10/28 02:56:19;;;;;;;7.25;5.13;;;;;;;;;;6222805;28;20540;-72
2023/10/28 02:59:21;;;;;;;10.63;5.20;;;;;;;;;;6219111;28;20103;-72
2023/10/28 03:02:23;;;;;;;8.40;7.80;;;;;;;;;;6236540;28;20053;-72
2023/10/28 03:05:25;;;;;;;9.23;5.05;;;;;;;;;;6218929;28;20051;-72
2023/10/28 03:08:29;;;;;;;9.68;4.68;;;;;;;;;;6220138;28;20044;-72
2023/10/28 03:11:31;;;;;;;7.57;4.65;;;;;;;;;;6236415;28;20056;-72
2023/10/28 03:14:33;;;;;;;7.78;7.07;;;;;;;;;;6218793;28;20033;-71
2023/10/28 03:17:35;;;;;;;5.65;5.15;;;;;;;;;;6240993;28;20130;-73
2023/10/28 03:20:37;;;;;;;11.93;5.60;;;;;;;;;;6237515;28;20568;-72
2023/10/28 03:23:39;;;;;;;9.57;5.18;;;;;;;;;;6206696;28;20053;-72
2023/10/28 03:26:42;;;;;;;5.45;4.78;;;;;;;;;;6220528;28;20041;-71
2023/10/28 03:29:45;;;;;;;7.07;5.65;;;;;;;;;;6238724;28;20534;-72
2023/10/28 03:32:47;;;;;;;9.73;5.43;;;;;;;;;;6221819;28;20045;-72
2023/10/28 03:35:50;;;;;;;8.60;6.18;;;;;;;;;;6220666;28;20048;-72
2023/10/28 03:38:52;;;;;;;9.45;6.55;;;;;;;;;;6237821;28;20529;-72
2023/10/28 03:41:55;;;;;;;6.30;5.47;;;;;;;;;;6222903;28;20049;-72
2023/10/28 03:44:59;;;;;;;9.52;5.10;;;;;;;;;;6239961;28;20050;-72
2023/10/28 03:48:01;;;;;;;4.57;2.60;;;;;;;;;;6236063;28;20052;-72
2023/10/28 03:51:04;;;;;;;6.80;6.05;;;;;;;;;;6218981;28;20107;-72
2023/10/28 03:54:06;;;;;;;7.85;4.93;;;;;;;;;;6214479;28;20509;-72
2023/10/28 03:57:08;;;;;;;6.78;4.85;;;;;;;;;;6224856;28;20038;-71
2023/10/28 04:00:11;;;;;;;7.18;4.97;;;;;;;;;;6231175;28;20065;-74
2023/10/28 04:03:13;;;;;;;8.90;5.05;;;;;;;;;;6226772;28;20053;-70
2023/10/28 04:06:15;;;;;;;7.82;4.95;;;;;;;;;;6246271;28;20195;-71
2023/10/28 04:09:17;;;;;;;5.82;4.15;;;;;;;;;;6246889;28;20049;-67
2023/10/28 04:12:19;;;;;;;10.90;5.18;;;;;;;;;;6246173;28;20038;-67
2023/10/28 04:15:22;;;;;;;7.90;4.97;;;;;;;;;;6246666;28;20061;-68
2023/10/28 04:18:24;;;;;;;9.18;5.45;;;;;;;;;;6246168;28;20136;-68
2023/10/28 04:21:27;;;;;;;7.55;5.47;;;;;;;;;;6247870;28;20447;-68
2023/10/28 04:24:29;;;;;;;7.07;4.78;;;;;;;;;;6248502;28;20077;-69
2023/10/28 04:27:32;;;;;;;7.40;4.97;;;;;;;;;;6246015;28;20051;-69
2023/10/28 04:30:34;;;;;;;8.52;5.03;;;;;;;;;;6234774;28;20788;-70
2023/10/28 04:33:36;;;;;;;6.55;5.30;;;;;;;;;;6245991;28;20584;-69
2023/10/28 04:36:38;;;;;;;8.63;6.57;;;;;;;;;;6237072;28;20049;-68
2023/10/28 04:39:41;;;;;;;7.93;5.57;;;;;;;;;;6246666;28;20140;-69
2023/10/28 04:42:43;;;;;;;7.05;5.38;;;;;;;;;;6246700;28;20061;-69
2023/10/28 04:45:45;;;;;;;7.88;4.38;;;;;;;;;;6245015;28;20050;-69
2023/10/28 04:48:47;;;;;;;5.93;2.67;;;;;;;;;;6216172;28;20434;-69
2023/10/28 04:51:49;;;;;;;9.30;5.45;;;;;;;;;;6243445;28;20057;-69
2023/10/28 04:54:51;;;;;;;9.93;5.47;;;;;;;;;;6217362;28;20049;-69
2023/10/28 04:57:53;;;;;;;9.02;6.45;;;;;;;;;;6245909;28;20041;-68
2023/10/28 05:00:55;;;;;;;13.98;6.22;;;;;;;;;;6244708;28;20481;-67
2023/10/28 05:03:57;;;;;;;8.90;6.05;;;;;;;;;;6243890;28;20049;-69
2023/10/28 05:07:01;;;;;;;7.90;3.85;;;;;;;;;;6243232;28;20072;-69
2023/10/28 05:10:03;;;;;;;8.80;6.53;;;;;;;;;;6241635;28;20041;-69
2023/10/28 05:13:05;;;;;;;8.48;5.25;;;;;;;;;;6240179;28;20049;-69
2023/10/28 05:16:08;;;;;;;6.25;4.93;;;;;;;;;;6244853;28;20121;-68
2023/10/28 05:19:11;;;;;;;8.30;6.03;;;;;;;;;;6240053;28;20058;-69
2023/10/28 05:22:14;;;;;;;6.45;5.63;;;;;;;;;;6236525;28;20140;-69
2023/10/28 05:25:16;;;;;;;4.95;2.75;;;;;;;;;;6250287;28;20052;-68
2023/10/28 05:28:18;;;;;;;7.53;3.50;;;;;;;;;;6247544;28;20532;-69
2023/10/28 05:31:21;;;;;;;10.38;6.10;;;;;;;;;;6242836;28;20057;-69
2023/10/28 05:34:23;;;;;;;5.88;5.05;;;;;;;;;;6232226;28;20923;-68
2023/10/28 05:37:27;;;;;;;6.82;4.03;;;;;;;;;;6242128;28;20286;-69
2023/10/28 05:40:29;;;;;;;7.80;4.68;;;;;;;;;;6239509;28;20045;-69
2023/10/28 05:43:31;;;;;;;7.90;6.75;;;;;;;;;;6240379;28;20037;-67
2023/10/28 05:46:33;;;;;;;6.15;5.55;;;;;;;;;;6241732;28;20044;-67
2023/10/28 05:49:36;;;;;;;8.77;3.88;;;;;;;;;;6224945;28;20049;-68
2023/10/28 05:52:40;;;;;;;10.45;6.57;;;;;;;;;;6242183;28;20057;-68
2023/10/28 05:55:42;;;;;;;10.32;5.70;;;;;;;;;;6240409;28;20046;-68
2023/10/28 05:58:44;;;;;;;10.93;6.95;;;;;;;;;;6242145;28;20037;-67
2023/10/28 06:01:46;;;;;;;24.38;16.52;;;;;;;;;;6236570;28;20565;-69
2023/10/28 06:04:49;;;;;;;13.13;6.47;;;;;;;;;;6238809;28;20046;-67
2023/10/28 06:07:51;;;;;;;7.28;6.13;;;;;;;;;;6240945;28;20045;-67
2023/10/28 06:10:54;;;;;;;6.40;2.80;;;;;;;;;;6242050;28;20037;-67
2023/10/28 06:13:56;;;;;;;6.10;3.33;;;;;;;;;;6240354;28;20045;-68
2023/10/28 06:16:58;;;;;;;5.55;4.78;;;;;;;;;;6235492;28;20517;-68
2023/10/28 06:20:01;;;;;;;5.05;3.05;;;;;;;;;;6236059;28;20049;-67
2023/10/28 06:23:06;;;;;;;8.35;4.85;;;;;;;;;;6236472;28;20053;-68
2023/10/28 06:26:08;;;;;;;;;;;;;;;;;;6237227;28;20128;-68
2023/10/28 06:29:10;;;;;;;8.05;3.08;;;;;;;;;;6236339;28;19932;-68
2023/10/28 06:32:12;;;;;;;9.20;2.75;;;;;;;;;;6246329;28;20060;-66
2023/10/28 06:35:16;;;;;;;5.65;2.95;;;;;;;;;;6239784;28;20135;-68
2023/10/28 06:38:18;;;;;;;5.40;2.25;;;;;;;;;;6224839;28;20056;-68
2023/10/28 06:41:21;;;;;;;4.85;2.88;;;;;;;;;;6236415;28;20582;-70
2023/10/28 06:44:23;;;;;;;6.22;2.40;;;;;;;;;;6241288;28;20103;-67
2023/10/28 06:47:25;;;;;;;4.93;2.17;;;;;;;;;;6228058;28;20057;-66
2023/10/28 06:50:27;;;;;;;7.20;4.50;;;;;;;;;;6238241;28;20060;-65
2023/10/28 06:53:29;;;;;;;8.80;3.45;;;;;;;;;;6240255;28;20045;-67
2023/10/28 06:56:31;;;;;;;10.20;3.85;;;;;;;;;;6246276;28;20045;-67
2023/10/28 06:59:34;;;;;;;10.80;4.75;;;;;;;;;;6236873;28;20056;-70
2023/10/28 07:02:36;;;;;;;9.45;2.05;;;;;;;;;;6239993;28;20049;-69
2023/10/28 07:05:39;;;;;;;7.38;2.83;;;;;;;;;;6229534;28;20543;-70
2023/10/28 07:08:41;;;;;;;8.23;4.40;;;;;;;;;;6223614;28;20341;-70
2023/10/28 07:11:44;;;;;;;7.03;2.35;;;;;;;;;;6242868;28;20049;-70
2023/10/28 07:14:47;;;;;;;7.63;3.50;;;;;;;;;;6237932;28;20045;-70
2023/10/28 07:17:49;;;;;;;5.18;3.10;;;;;;;;;;6245454;28;20053;-70
2023/10/28 07:20:51;;;;;;;6.43;1.90;;;;;;;;;;6244778;28;20041;-69
2023/10/28 07:23:54;;;;;;;7.05;1.98;;;;;;;;;;6241921;28;20183;-70
2023/10/28 07:26:56;;;;;;;7.03;1.83;;;;;;;;;;6237946;28;20369;-70
2023/10/28 07:29:59;;;;;;;5.30;1.80;;;;;;;;;;6237986;28;20588;-70
2023/10/28 07:33:01;;;;;;;11.60;1.70;;;;;;;;;;6244869;28;20505;-70
2023/10/28 07:36:04;;;;;;;8.68;1.63;;;;;;;;;;6241556;28;20037;-68
2023/10/28 07:39:06;;;;;;;6.82;2.22;;;;;;;;;;6244065;28;20060;-70
2023/10/28 07:42:08;;;;;;;4.28;2.03;;;;;;;;;;6246646;28;20046;-70
2023/10/28 07:45:10;;;;;;;7.10;2.25;;;;;;;;;;6244755;28;20489;-73
2023/10/28 07:48:12;;;;;;;4.88;3.30;;;;;;;;;;6241115;28;20080;-71
2023/10/28 07:51:16;;;;;;;7.95;1.95;;;;;;;;;;6251728;28;20038;-70
2023/10/28 07:54:18;;;;;;;7.22;3.75;;;;;;;;;;6242721;28;20045;-70
2023/10/28 07:57:22;;;;;;;7.25;3.33;;;;;;;;;;6227895;28;20041;-70
2023/10/28 08:00:24;;;;;;;9.63;4.57;;;;;;;;;;6239734;28;20052;-70
2023/10/28 08:03:28;;;;;;;7.35;2.20;;;;;;;;;;6243202;28;20071;-70
2023/10/28 08:06:30;;;;;;;10.13;3.63;;;;;;;;;;6246109;28;20120;-70
2023/10/28 08:09:36;;;;;;;8.98;3.72;;;;;;;;;;6239351;28;20101;-69
2023/10/28 08:12:39;;;;;;;6.13;3.47;;;;;;;;;;6242382;28;20389;-70
2023/10/28 08:15:41;;;;;;;6.50;1.95;;;;;;;;;;6243877;28;20114;-70
2023/10/28 08:18:43;;;;;;;8.20;3.20;;;;;;;;;;6246289;28;20124;-70
2023/10/28 08:21:47;;;;;;;5.25;1.80;;;;;;;;;;6243345;28;20442;-69
2023/10/28 08:24:49;;;;;;;9.43;3.60;;;;;;;;;;6243980;28;20037;-70
2023/10/28 08:27:52;;;;;;;9.38;1.85;;;;;;;;;;6241299;28;20045;-70
2023/10/28 08:30:54;;;;;;;5.20;2.80;;;;;;;;;;6244383;28;20046;-68
2023/10/28 08:33:57;;;;;;;5.50;2.42;;;;;;;;;;6245886;28;20045;-70
2023/10/28 08:36:59;;;;;;;4.80;1.42;;;;;;;;;;6238310;28;20046;-70
2023/10/28 08:40:08;;;;;;;5.63;1.67;;;;;;;;;;6243620;28;20156;-70
2023/10/28 08:43:10;;;;;;;4.32;1.83;;;;;;;;;;6239974;28;20219;-70
2023/10/28 08:46:13;;;;;;;5.00;2.70;;;;;;;;;;6244931;28;20266;-70
2023/10/28 08:49:15;;;;;;;4.22;1.00;;;;;;;;;;6260196;28;20045;-70
2023/10/28 08:52:21;;;;;;;5.78;1.38;;;;;;;;;;6243736;28;20706;-70
2023/10/28 08:55:24;;;;;;;4.78;1.90;;;;;;;;;;6244054;28;20142;-70
2023/10/28 08:58:26;;;;;;;4.60;2.65;;;;;;;;;;6236799;28;20049;-70
2023/10/28 09:01:28;;;;;;;4.00;1.40;;;;;;;;;;6224292;28;20041;-68
2023/10/28 09:04:31;;;;;;;5.55;2.67;;;;;;;;;;6227852;28;20048;-74
2023/10/28 09:07:35;;;;;;;3.60;2.13;;;;;;;;;;6241188;28;20136;-68
2023/10/28 09:10:37;;;;;;;5.45;2.65;;;;;;;;;;6237230;28;20046;-68
2023/10/28 09:13:47;;;;;;;5.20;3.72;;;;;;;;;;6225096;28;20188;-69
2023/10/28 09:16:49;;;;;;;5.88;3.25;;;;;;;;;;6237046;28;20038;-67
2023/10/28 09:19:51;;;;;;;6.55;2.05;;;;;;;;;;6238506;28;20053;-68
2023/10/28 09:22:56;;;;;;;5.68;1.30;;;;;;;;;;6241788;28;20049;-67
2023/10/28 09:25:58;;;;;;;6.35;2.20;;;;;;;;;;6239956;28;20033;-68
2023/10/28 09:29:01;;;;;;;7.03;2.47;;;;;;;;;;6241419;28;20050;-68
2023/10/28 09:32:08;;;;;;;5.25;1.92;;;;;;;;;;6241900;28;20044;-68
2023/10/28 09:35:13;;;;;;;3.53;2.45;;;;;;;;;;6244919;28;20045;-67
2023/10/28 09:38:19;;;;;;;7.28;1.65;;;;;;;;;;6241881;28;20068;-67
2023/10/28 09:41:22;;;;;;;9.00;2.55;;;;;;;;;;6239425;28;20054;-67
2023/10/28 09:44:25;;;;;;;5.20;2.45;;;;;;;;;;6241864;28;20045;-68
2023/10/28 09:48:00;;;;;;;3.90;1.05;;;;;;;;;;6237312;28;20527;-67
2023/10/28 09:51:02;;;;;;;;;;;;;;;;;;6235373;28;20045;-67
2023/10/28 09:54:08;;;;;;;6.15;1.52;;;;;;;;;;6239012;28;19928;-67
2023/10/28 09:57:11;;;;;;;7.50;2.55;;;;;;;;;;6236992;28;20050;-67
2023/10/28 10:00:19;;;;;;;4.00;1.23;;;;;;;;;;6242906;28;20052;-67
2023/10/28 10:03:59;;;;;;;6.13;1.40;;;;;;;;;;6238725;28;20730;-66
2023/10/28 10:07:01;;;;;;;5.72;1.52;;;;;;;;;;6228806;28;20136;-64
2023/10/28 10:10:13;;;;;;;5.38;2.05;;;;;;;;;;6231814;28;20044;-63
2023/10/28 10:13:16;;;;;;;6.63;2.67;;;;;;;;;;6235343;28;20136;-64
2023/10/28 10:17:06;;;;;;;6.70;1.50;;;;;;;;;;6231471;28;20046;-64
2023/10/28 10:20:09;;;;;;;3.30;2.00;;;;;;;;;;6207592;28;20057;-64
2023/10/28 10:23:11;;;;;;;5.93;1.73;;;;;;;;;;6233544;28;20046;-65
2023/10/28 10:26:25;;;;;;;3.55;2.25;;;;;;;;;;6215895;28;20128;-65
2023/10/28 10:29:40;;;;;;;4.47;1.92;;;;;;;;;;6229794;28;20781;-64
2023/10/28 10:32:48;;;;;;;5.65;1.33;;;;;;;;;;6234399;28;20052;-64
2023/10/28 10:35:51;;;;;;;6.57;1.38;;;;;;;;;;6232443;28;20098;-63
2023/10/28 10:38:54;;;;;;;7.03;1.40;;;;;;;;;;6234386;28;20049;-64
2023/10/28 10:41:59;;;;;;;6.82;1.00;;;;;;;;;;6236069;28;20057;-63
2023/10/28 10:45:03;;;;;;;6.93;2.30;;;;;;;;;;6217955;28;20073;-63
2023/10/28 10:48:09;;;;;;;4.28;2.95;;;;;;;;;;6235228;28;20061;-63
2023/10/28 10:51:11;;;;;;;2.13;0.75;;;;;;;;;;6235441;28;20474;-64
2023/10/28 10:54:16;;;;;;;5.70;1.80;;;;;;;;;;6202253;28;20053;-71
2023/10/28 10:57:18;;;;;;;3.42;1.67;;;;;;;;;;6240109;28;20054;-67
2023/10/28 11:00:20;;;;;;;6.03;1.33;;;;;;;;;;6239595;28;20060;-68
2023/10/28 11:03:24;;;;;;;4.38;1.13;;;;;;;;;;6240780;28;20111;-67
2023/10/28 11:06:26;;;;;;;6.57;1.25;;;;;;;;;;6241699;28;20120;-67
2023/10/28 11:09:29;;;;;;;3.70;2.42;;;;;;;;;;6240774;28;20045;-67
2023/10/28 11:12:31;;;;;;;2.65;0.82;;;;;;;;;;6241056;28;20172;-67
2023/10/28 11:15:34;;;;;;;4.97;1.30;;;;;;;;;;6242362;28;20061;-67
2023/10/28 11:18:39;;;;;;;4.55;1.20;;;;;;;;;;6266002;28;20053;-67
2023/10/28 11:21:43;;;;;;;7.43;2.30;;;;;;;;;;6229519;28;20076;-67
2023/10/28 11:24:54;;;;;;;7.28;1.05;;;;;;;;;;6227640;28;20076;-73
2023/10/28 11:27:56;;;;;;;5.10;1.25;;;;;;;;;;6239807;28;20041;-64
2023/10/28 11:30:59;;;;;;;5.43;1.83;;;;;;;;;;6236950;28;20126;-63
2023/10/28 11:34:02;;;;;;;5.90;1.90;;;;;;;;;;6225663;28;20045;-65
2023/10/28 11:37:09;;;;;;;2.45;0.75;;;;;;;;;;6241697;28;20090;-64
2023/10/28 11:40:11;;;;;;;5.13;1.60;;;;;;;;;;6234784;28;20115;-64
2023/10/28 11:43:16;;;;;;;3.67;1.58;;;;;;;;;;6232361;28;20088;-65
2023/10/28 11:46:19;;;;;;;3.50;0.60;;;;;;;;;;6238578;28;20152;-65
2023/10/28 11:49:22;;;;;;;3.90;1.98;;;;;;;;;;6243178;28;20059;-71
2023/10/28 11:52:24;;;;;;;3.78;1.17;;;;;;;;;;6245276;28;20060;-70
2023/10/28 11:55:26;;;;;;;5.45;1.58;;;;;;;;;;6245128;28;20064;-71
2023/10/28 11:58:31;;;;;;;5.32;1.83;;;;;;;;;;6245753;28;20129;-71
2023/10/28 12:01:36;;;;;;;3.65;1.52;;;;;;;;;;6245169;28;20041;-70
2023/10/28 12:04:38;;;;;;;5.95;1.88;;;;;;;;;;6214377;28;20049;-70
2023/10/28 12:07:41;;;;;;;3.40;0.98;;;;;;;;;;6243579;28;20030;-71
2023/10/28 12:10:46;;;;;;;4.22;1.70;;;;;;;;;;6237854;28;20045;-70
2023/10/28 12:13:59;;;;;;;3.63;1.25;;;;;;;;;;6247703;28;20045;-70
2023/10/28 12:17:04;;;;;;;5.22;2.70;;;;;;;;;;6247281;28;20052;-70
2023/10/28 12:20:07;;;;;;;;;;;;;;;;;;6226032;28;20057;-71
2023/10/28 12:23:13;;;;;;;3.10;0.70;;;;;;;;;;6241034;28;19932;-71
2023/10/28 12:26:15;;;;;;;6.00;1.08;;;;;;;;;;6241510;28;20049;-70
2023/10/28 12:29:17;;;;;;;2.67;1.02;;;;;;;;;;6242950;28;20053;-71
2023/10/28 12:32:19;;;;;;;4.38;1.70;;;;;;;;;;6243532;28;20061;-70
2023/10/28 12:35:21;;;;;;;3.75;1.67;;;;;;;;;;6240477;28;20057;-70
2023/10/28 12:38:23;;;;;;;4.82;2.30;;;;;;;;;;6232955;28;20053;-69
2023/10/28 12:41:25;;;;;;;6.03;1.92;;;;;;;;;;6222867;28;20132;-68
2023/10/28 12:44:28;;;;;;;4.25;2.05;;;;;;;;;;6241545;28;20049;-69
2023/10/28 12:47:30;;;;;;;4.00;1.17;;;;;;;;;;6241087;28;20037;-69
2023/10/28 12:50:32;;;;;;;2.38;1.10;;;;;;;;;;6226201;28;20330;-68
2023/10/28 12:53:34;;;;;;;5.35;1.15;;;;;;;;;;6242612;28;20052;-69
2023/10/28 12:56:36;;;;;;;4.25;3.05;;;;;;;;;;6241651;28;20570;-68
2023/10/28 12:59:38;;;;;;;6.15;1.95;;;;;;;;;;6240872;28;20049;-68
2023/10/28 13:02:41;;;;;;;3.90;2.28;;;;;;;;;;6239468;28;20057;-67
2023/10/28 13:05:43;;;;;;;4.13;0.82;;;;;;;;;;6237067;28;20048;-67
2023/10/28 13:08:45;;;;;;;5.80;1.40;;;;;;;;;;6241896;28;20533;-68
2023/10/28 13:11:49;;;;;;;4.53;1.75;;;;;;;;;;6237203;28;20564;-67
2023/10/28 13:14:52;;;;;;;5.78;2.25;;;;;;;;;;6239684;28;20052;-68
2023/10/28 13:17:56;;;;;;;3.00;1.85;;;;;;;;;;6242022;28;20124;-68
2023/10/28 13:20:59;;;;;;;5.40;1.40;;;;;;;;;;6241262;28;20045;-68
2023/10/28 13:24:02;;;;;;;3.47;2.67;;;;;;;;;;6235923;28;20045;-71
2023/10/28 13:27:04;;;;;;;3.20;1.52;;;;;;;;;;6218505;28;20510;-70
2023/10/28 13:30:07;;;;;;;3.75;1.38;;;;;;;;;;6219409;28;20061;-70
2023/10/28 13:33:12;;;;;;;4.10;1.48;;;;;;;;;;6238171;28;20049;-70
2023/10/28 13:36:14;;;;;;;3.95;1.92;;;;;;;;;;6233401;28;20171;-70
2023/10/28 13:39:16;;;;;;;6.57;1.85;;;;;;;;;;6235483;28;20127;-69
2023/10/28 13:42:18;;;;;;;2.22;1.92;;;;;;;;;;6239620;28;20037;-68
2023/10/28 13:45:20;;;;;;;7.22;2.50;;;;;;;;;;6239263;28;20045;-68
2023/10/28 13:48:22;;;;;;;3.92;2.17;;;;;;;;;;6238728;28;20037;-68
2023/10/28 13:51:25;;;;;;;5.70;1.50;;;;;;;;;;6239107;28;20061;-68
2023/10/28 13:54:33;;;;;;;3.95;1.13;;;;;;;;;;6235453;28;20046;-68
2023/10/28 13:57:37;;;;;;;4.43;1.92;;;;;;;;;;6235132;28;20041;-68
2023/10/28 14:00:39;;;;;;;4.60;2.50;;;;;;;;;;6228660;28;20077;-67
2023/10/28 14:03:46;;;;;;;3.65;1.17;;;;;;;;;;6236764;28;20056;-69
2023/10/28 14:06:49;;;;;;;7.20;2.20;;;;;;;;;;6235242;28;20049;-69
2023/10/28 14:09:51;;;;;;;8.90;2.97;;;;;;;;;;6235314;28;20069;-69
2023/10/28 14:12:52;;;;;;;5.90;2.00;;;;;;;;;;6237320;28;20033;-69
2023/10/28 14:15:54;;;;;;;8.77;0.75;;;;;;;;;;6232867;28;20049;-69
2023/10/28 14:18:58;;;;;;;8.38;2.63;;;;;;;;;;6214125;28;20511;-69
2023/10/28 14:22:00;;;;;;;6.10;2.60;;;;;;;;;;6237577;28;20045;-68
2023/10/28 14:25:04;;;;;;;5.32;4.18;;;;;;;;;;6235165;28;20128;-68
2023/10/28 14:28:10;;;;;;;3.97;1.13;;;;;;;;;;6233103;28;20042;-67
2023/10/28 14:31:17;;;;;;;6.47;1.42;;;;;;;;;;6237096;28;20085;-66
2023/10/28 14:34:22;;;;;;;8.15;2.05;;;;;;;;;;6231751;28;20041;-66
2023/10/28 14:37:24;;;;;;;4.82;1.55;;;;;;;;;;6232297;28;20450;-64
2023/10/28 14:40:27;;;;;;;5.25;1.88;;;;;;;;;;6242726;28;20049;-71
2023/10/28 14:43:29;;;;;;;4.97;1.23;;;;;;;;;;6236888;28;20139;-70
2023/10/28 14:46:31;;;;;;;4.93;1.50;;;;;;;;;;6233615;28;20107;-71
2023/10/28 14:49:33;;;;;;;6.57;2.15;;;;;;;;;;6234228;28;20116;-70
2023/10/28 14:52:36;;;;;;;9.13;1.05;;;;;;;;;;6232945;28;20080;-71
2023/10/28 14:55:40;;;;;;;3.50;1.67;;;;;;;;;;6229894;28;20192;-70
2023/10/28 14:58:42;;;;;;;8.07;1.38;;;;;;;;;;6235694;28;20060;-70
2023/10/28 15:01:44;;;;;;;3.50;1.20;;;;;;;;;;6209400;28;20676;-70
2023/10/28 15:04:46;;;;;;;6.72;1.85;;;;;;;;;;6225079;28;20127;-70
2023/10/28 15:07:49;;;;;;;5.97;1.23;;;;;;;;;;6229499;28;20045;-70
2023/10/28 15:10:52;;;;;;;11.95;2.90;;;;;;;;;;6226896;28;20044;-70
2023/10/28 15:13:55;;;;;;;36.50;23.23;;;;;;;;;;6231046;28;20106;-70
2023/10/28 15:16:57;;;;;;;25.63;16.90;;;;;;;;;;6233259;28;20049;-69
2023/10/28 15:19:59;;;;;;;16.70;7.68;;;;;;;;;;6234254;28;20482;-70
2023/10/28 15:23:01;;;;;;;21.30;13.23;;;;;;;;;;6215639;28;20044;-70
2023/10/28 15:26:13;;;;;;;13.82;5.57;;;;;;;;;;6236042;28;20167;-70
2023/10/28 15:29:16;;;;;;;10.77;3.10;;;;;;;;;;6235440;28;20064;-70
2023/10/28 15:32:22;;;;;;;4.85;1.02;;;;;;;;;;6235526;28;20090;-70
2023/10/28 15:35:25;;;;;;;9.38;3.88;;;;;;;;;;6241079;28;20058;-71
2023/10/28 15:38:29;;;;;;;7.07;2.63;;;;;;;;;;6235518;28;20247;-70
2023/10/28 15:41:32;;;;;;;9.63;4.47;;;;;;;;;;6236210;28;20052;-70
2023/10/28 15:44:34;;;;;;;5.57;2.08;;;;;;;;;;6215032;28;20478;-70
2023/10/28 15:47:36;;;;;;;10.82;5.88;;;;;;;;;;6233260;28;20041;-70
2023/10/28 15:50:38;;;;;;;15.38;6.55;;;;;;;;;;6233138;28;20041;-74
2023/10/28 15:53:40;;;;;;;8.70;1.55;;;;;;;;;;6237559;28;20049;-65
2023/10/28 15:56:44;;;;;;;5.85;2.42;;;;;;;;;;6240716;28;20041;-66
2023/10/28 15:59:46;;;;;;;17.17;10.30;;;;;;;;;;6241111;28;20101;-66
2023/10/28 16:02:48;;;;;;;14.20;11.27;;;;;;;;;;6239976;28;20057;-66
2023/10/28 16:05:50;;;;;;;7.43;1.52;;;;;;;;;;6232949;28;20041;-67
2023/10/28 16:08:53;;;;;;;6.10;3.35;;;;;;;;;;6238464;28;20029;-67
2023/10/28 16:11:55;;;;;;;5.47;3.40;;;;;;;;;;6236019;28;20057;-66
2023/10/28 16:14:57;;;;;;;5.78;2.67;;;;;;;;;;6239489;28;20049;-66
2023/10/28 16:17:59;;;;;;;5.47;3.38;;;;;;;;;;6234126;28;20167;-67
2023/10/28 16:21:01;;;;;;;11.25;4.72;;;;;;;;;;6233540;28;20041;-66
2023/10/28 16:24:03;;;;;;;7.05;1.70;;;;;;;;;;6237558;28;20052;-66
2023/10/28 16:27:05;;;;;;;8.32;5.55;;;;;;;;;;6238414;28;20050;-69
2023/10/28 16:30:08;;;;;;;12.45;7.25;;;;;;;;;;6235306;28;20435;-67
2023/10/28 16:33:11;;;;;;;8.30;3.83;;;;;;;;;;6218870;28;20156;-66
2023/10/28 16:36:16;;;;;;;5.38;1.77;;;;;;;;;;6234858;28;20895;-65
2023/10/28 16:39:18;;;;;;;9.85;6.75;;;;;;;;;;6229562;28;20050;-65
2023/10/28 16:42:22;;;;;;;6.38;3.65;;;;;;;;;;6232391;28;20049;-65
2023/10/28 16:45:24;;;;;;;7.35;4.25;;;;;;;;;;6232821;28;20046;-65
2023/10/28 16:48:28;;;;;;;5.38;1.10;;;;;;;;;;6233590;28;20056;-70
2023/10/28 16:51:31;;;;;;;6.22;2.15;;;;;;;;;;6217806;28;21966;-71
2023/10/28 16:54:33;;;;;;;8.93;3.25;;;;;;;;;;6236386;28;20102;-71
2023/10/28 16:57:39;;;;;;;9.30;7.07;;;;;;;;;;6236567;28;20187;-69
2023/10/28 17:00:42;;;;;;;8.38;7.45;;;;;;;;;;6228200;28;20045;-69
2023/10/28 17:03:44;;;;;;;10.98;7.93;;;;;;;;;;6212443;28;20068;-70
2023/10/28 17:06:50;;;;;;;5.25;2.88;;;;;;;;;;6231634;28;20041;-66
2023/10/28 17:09:54;;;;;;;4.18;1.33;;;;;;;;;;6236294;28;20057;-68
2023/10/28 17:12:59;;;;;;;8.50;1.83;;;;;;;;;;6234185;28;20600;-67
2023/10/28 17:16:03;;;;;;;4.78;2.67;;;;;;;;;;6234708;28;20056;-67
2023/10/28 17:19:05;;;;;;;8.23;1.42;;;;;;;;;;6234341;28;20060;-68
2023/10/28 17:22:08;;;;;;;5.93;3.00;;;;;;;;;;6232802;28;20057;-68
2023/10/28 17:25:10;;;;;;;5.18;3.67;;;;;;;;;;6231571;28;20053;-68
2023/10/28 17:28:12;;;;;;;4.80;1.75;;;;;;;;;;6235852;28;20068;-67
2023/10/28 17:31:15;;;;;;;5.40;3.03;;;;;;;;;;6232212;28;20057;-67
2023/10/28 17:34:17;;;;;;;8.93;3.55;;;;;;;;;;6235395;28;20048;-67
2023/10/28 17:37:19;;;;;;;4.10;3.10;;;;;;;;;;6235675;28;20037;-68
2023/10/28 17:40:22;;;;;;;5.95;3.85;;;;;;;;;;6217913;28;20072;-68
2023/10/28 17:43:24;;;;;;;7.78;4.15;;;;;;;;;;6232763;28;20065;-67
2023/10/28 17:46:27;;;;;;;5.18;3.58;;;;;;;;;;6236272;28;20131;-69
2023/10/28 17:49:29;;;;;;;8.35;3.53;;;;;;;;;;6232607;28;20050;-72
2023/10/28 17:52:31;;;;;;;5.72;3.63;;;;;;;;;;6213646;28;20045;-72
2023/10/28 17:55:33;;;;;;;7.03;4.43;;;;;;;;;;6234736;28;20470;-68
2023/10/28 17:58:36;;;;;;;6.70;3.15;;;;;;;;;;6233714;28;20030;-70
2023/10/28 18:01:38;;;;;;;7.95;3.70;;;;;;;;;;6213204;28;20207;-69
2023/10/28 18:04:40;;;;;;;4.78;3.25;;;;;;;;;;6232713;28;20046;-69
2023/10/28 18:07:42;;;;;;;12.10;6.95;;;;;;;;;;6234993;28;20033;-68
2023/10/28 18:10:44;;;;;;;17.35;7.00;;;;;;;;;;6234484;28;20453;-67
2023/10/28 18:13:47;;;;;;;20.77;12.48;;;;;;;;;;6232013;28;20058;-72
2023/10/28 18:16:50;;;;;;;9.40;4.18;;;;;;;;;;6219297;28;20052;-67
2023/10/28 18:19:54;;;;;;;8.88;6.40;;;;;;;;;;6226753;28;20045;-68